Time;durP1;ratioP1;P1;durP2;ratioP2;P2;SDS_P1;SDS_P2;PMS_P1;PMS_P2;Temp;Humidity;BMP_temperature;BMP_pressure;BME280_temperature;BME280_humidity;BME280_pressure;Samples;Min_cycle;Max_cycle;Signal;HPM_P1;HPM_P2
2023/12/10 00:00:57;;;;;;;22.75;16.10;;;;;;;-145.63;53.88;38768.06;5091489;28;20056;-66
2023/12/10 00:03:22;;;;;;;27.25;18.17;;;;;;;-145.63;53.79;38801.31;5076948;28;20074;-64
2023/12/10 00:05:48;;;;;;;26.00;16.13;;;;;;;-145.63;53.69;38754.38;5066535;28;20029;-65
2023/12/10 00:08:14;;;;;;;29.73;17.85;;;;;;;-145.63;53.67;38793.50;5084176;28;20029;-65
2023/12/10 00:10:40;;;;;;;27.85;17.17;;;;;;;-145.63;53.19;38756.34;5065009;28;20032;-65
2023/12/10 00:13:06;;;;;;;25.42;18.15;;;;;;;-145.63;53.64;38746.56;5077106;28;20056;-66
2023/12/10 00:15:32;;;;;;;23.60;15.35;;;;;;;-145.63;53.53;38785.66;5074536;28;20449;-64
2023/12/10 00:17:57;;;;;;;25.25;16.40;;;;;;;-145.63;53.84;38758.28;5067478;28;20031;-65
2023/12/10 00:20:25;;;;;;;27.70;16.65;;;;;;;-145.63;53.84;38766.13;5083733;28;20047;-66
2023/12/10 00:22:51;;;;;;;28.17;17.77;;;;;;;-145.63;53.65;38766.13;5084162;28;20074;-65
2023/12/10 00:25:17;;;;;;;27.17;17.92;;;;;;;-145.63;53.34;38738.75;5083590;28;20024;-64
2023/12/10 00:27:44;;;;;;;26.75;18.35;;;;;;;-145.63;53.23;38775.91;5073723;28;20024;-65
2023/12/10 00:30:10;;;;;;;28.48;18.40;;;;;;;-145.63;53.65;38783.72;5068910;28;20096;-64
2023/12/10 00:32:36;;;;;;;25.35;16.65;;;;;;;-145.63;53.65;38766.13;5083076;28;20095;-65
2023/12/10 00:35:03;;;;;;;25.27;18.75;;;;;;;-145.63;54.07;38758.28;5063561;28;20382;-64
2023/12/10 00:37:30;;;;;;;26.40;17.77;;;;;;;-145.63;53.15;38754.38;5079947;28;20035;-64
2023/12/10 00:39:56;;;;;;;25.85;16.88;;;;;;;-145.63;54.47;38754.38;5070797;28;20029;-65
2023/12/10 00:42:22;;;;;;;26.65;16.48;;;;;;;-145.63;54.21;38801.31;5070335;28;20078;-64
2023/12/10 00:44:48;;;;;;;24.35;18.20;;;;;;;-145.63;54.33;38777.84;5083180;28;20028;-65
2023/12/10 00:47:13;;;;;;;25.85;16.63;;;;;;;-145.63;54.17;38777.84;5083380;28;20024;-64
2023/12/10 00:49:39;;;;;;;27.08;18.27;;;;;;;-145.63;54.29;38764.16;5083021;28;20036;-65
2023/12/10 00:52:05;;;;;;;24.98;18.48;;;;;;;-145.63;53.80;38752.44;5083247;28;20050;-66
2023/12/10 00:54:33;;;;;;;25.63;17.38;;;;;;;-145.63;54.03;38783.72;5075145;28;20288;-67
2023/12/10 00:56:59;;;;;;;29.88;20.92;;;;;;;-145.63;54.36;38787.63;5070041;28;20031;-67
2023/12/10 00:59:25;;;;;;;26.92;18.67;;;;;;;-145.63;54.19;38770.03;5103528;28;20369;-67
2023/12/10 01:01:52;;;;;;;31.27;20.13;;;;;;;-145.63;54.28;38785.66;5084019;28;20028;-65
2023/12/10 01:04:18;;;;;;;27.92;18.45;;;;;;;-145.63;54.26;38742.66;5069005;28;20025;-65
2023/12/10 01:06:43;;;;;;;27.20;16.90;;;;;;;-145.63;54.12;38783.72;5072498;28;20263;-65
2023/12/10 01:09:09;;;;;;;26.63;18.75;;;;;;;-145.63;54.25;38725.06;5077843;28;20029;-64
2023/12/10 01:11:35;;;;;;;25.60;19.08;;;;;;;-145.63;54.61;38762.22;5062983;28;20057;-66
2023/12/10 01:14:03;;;;;;;25.75;18.73;;;;;;;-145.63;54.07;38760.25;5082870;28;20021;-66
2023/12/10 01:16:29;;;;;;;28.52;20.25;;;;;;;-145.63;54.40;38781.75;5067069;28;20032;-65
2023/12/10 01:18:55;;;;;;;25.77;17.23;;;;;;;-145.63;54.05;38754.38;5073919;28;20024;-65
2023/12/10 01:21:21;;;;;;;27.13;19.42;;;;;;;-145.63;54.25;38768.06;5083093;28;20035;-64
2023/12/10 01:23:49;;;;;;;25.88;18.08;;;;;;;-145.63;54.25;38754.38;5082568;28;20052;-65
2023/12/10 01:26:15;;;;;;;29.73;17.95;;;;;;;-145.63;54.19;38770.03;5083121;28;20049;-66
2023/12/10 01:28:40;;;;;;;28.20;18.75;;;;;;;-145.63;54.43;38801.31;5065297;28;20037;-66
2023/12/10 01:31:06;;;;;;;25.60;17.70;;;;;;;-145.63;54.51;38756.34;5075205;28;20086;-65
2023/12/10 01:33:32;;;;;;;28.55;18.27;;;;;;;-145.63;54.37;38768.06;5081309;28;20040;-66
2023/12/10 01:35:57;;;;;;;25.15;18.23;;;;;;;-145.63;54.97;38727.00;5079772;28;20104;-66
2023/12/10 01:38:23;;;;;;;28.10;18.23;;;;;;;-145.63;54.70;38744.59;5062899;28;20025;-66
2023/12/10 01:40:49;;;;;;;27.73;19.30;;;;;;;-145.63;54.72;38742.66;5080902;28;20028;-66
2023/12/10 01:43:17;;;;;;;27.02;20.15;;;;;;;-145.63;54.60;38834.56;5069060;28;20020;-66
2023/12/10 01:45:53;;;;;;;27.98;19.48;;;;;;;-145.63;54.84;38779.81;5071499;28;20030;-67
2023/12/10 01:48:20;;;;;;;27.92;16.65;;;;;;;-145.63;55.13;38771.97;5082622;28;20024;-66
2023/12/10 01:50:46;;;;;;;28.42;17.10;;;;;;;-145.63;55.33;38758.28;5082367;28;20078;-66
2023/12/10 01:53:13;;;;;;;29.15;18.77;;;;;;;-145.63;55.82;38750.47;5082859;28;20070;-64
2023/12/10 01:55:41;;;;;;;27.23;16.83;;;;;;;-145.63;54.85;38748.50;5065483;28;20092;-65
2023/12/10 01:58:07;;;;;;;26.85;15.82;;;;;;;-145.63;55.54;38762.22;5087146;28;20312;-65
2023/12/10 02:00:33;;;;;;;28.20;18.92;;;;;;;-145.63;55.05;38822.81;5094760;28;20020;-64
2023/12/10 02:03:03;;;;;;;26.67;18.73;;;;;;;-145.63;55.79;38764.16;5082492;28;20067;-64
2023/12/10 02:05:29;;;;;;;29.98;18.10;;;;;;;-145.63;56.25;38771.97;5082286;28;20024;-66
2023/12/10 02:07:55;;;;;;;33.85;18.08;;;;;;;-145.63;55.99;38773.94;5063666;28;20048;-66
2023/12/10 02:10:21;;;;;;;29.13;16.30;;;;;;;-145.63;56.26;38728.97;5076417;28;20020;-66
2023/12/10 02:12:48;;;;;;;24.52;18.02;;;;;;;-145.63;56.00;38756.34;5072936;28;20021;-66
2023/12/10 02:15:18;;;;;;;31.88;17.50;;;;;;;-145.63;56.07;38762.22;5065943;28;20071;-66
2023/12/10 02:17:47;;;;;;;26.50;18.27;;;;;;;-145.63;55.97;38760.25;5082259;28;20055;-66
2023/12/10 02:20:14;;;;;;;26.42;17.23;;;;;;;-145.63;55.91;38785.66;5083515;28;20028;-64
2023/12/10 02:22:55;;;;;;;26.30;18.55;;;;;;;-145.63;55.88;38856.06;5085972;28;20036;-64
2023/12/10 02:25:38;;;;;;;27.40;19.45;;;;;;;-145.63;55.66;38773.94;5072186;28;20059;-65
2023/12/10 02:28:05;;;;;;;28.40;16.98;;;;;;;-145.63;55.25;37995.72;5077450;28;20020;-66
2023/12/10 02:30:32;;;;;;;27.17;17.50;;;;;;;-145.63;55.10;38768.06;5078793;28;20106;-67
2023/12/10 02:32:59;;;;;;;26.00;18.17;;;;;;;-145.63;55.19;38791.53;5068493;28;20092;-67
2023/12/10 02:35:26;;;;;;;26.25;17.10;;;;;;;-145.63;55.16;38756.34;5086183;28;20071;-64
2023/12/10 02:37:53;;;;;;;27.38;19.15;;;;;;;-145.63;55.63;38785.66;5067551;28;20301;-66
2023/12/10 02:40:19;;;;;;;26.85;19.05;;;;;;;-145.63;55.36;38777.84;5079412;28;20035;-66
2023/12/10 02:42:45;;;;;;;27.30;17.10;;;;;;;-145.63;54.87;38789.59;5077140;28;20066;-65
2023/12/10 02:45:12;;;;;;;27.85;18.55;;;;;;;-145.63;54.99;38813.03;5068455;28;20193;-65
2023/12/10 02:47:37;;;;;;;29.75;18.88;;;;;;;-145.63;55.30;38781.75;5085193;28;20020;-65
2023/12/10 02:50:04;;;;;;;27.20;17.42;;;;;;;-145.63;55.29;38766.13;5085381;28;20108;-65
2023/12/10 02:52:29;;;;;;;29.13;18.80;;;;;;;-145.63;54.84;38770.03;5084500;28;20044;-64
2023/12/10 02:54:55;;;;;;;27.83;18.63;;;;;;;-145.63;54.78;38801.31;5075253;28;20025;-65
2023/12/10 02:57:21;;;;;;;27.77;18.80;;;;;;;-145.63;55.39;38815.00;5076474;28;20032;-64
2023/12/10 02:59:47;;;;;;;25.85;18.20;;;;;;;-145.63;55.15;38803.28;5104867;28;20032;-66
2023/12/10 03:02:13;;;;;;;23.80;17.50;;;;;;;-145.63;55.06;38783.72;5085274;28;20174;-65
2023/12/10 03:04:39;;;;;;;27.00;18.42;;;;;;;-145.63;54.55;38775.91;5069007;28;20540;-64
2023/12/10 03:07:04;;;;;;;21.80;15.85;;;;;;;-145.63;54.55;38770.03;5076546;28;20036;-67
2023/12/10 03:09:30;;;;;;;21.70;16.27;;;;;;;-145.63;54.63;38783.72;5078458;28;20319;-66
2023/12/10 03:11:56;;;;;;;24.52;17.80;;;;;;;-145.63;54.84;38799.34;5067018;28;20029;-65
2023/12/10 03:14:22;;;;;;;26.23;17.55;;;;;;;-145.63;54.67;38760.25;5085170;28;20096;-65
2023/12/10 03:16:48;;;;;;;26.73;18.17;;;;;;;-145.63;54.55;38775.91;5067902;28;20032;-65
2023/12/10 03:19:13;;;;;;;26.35;16.20;;;;;;;-145.63;55.15;38785.66;5078040;28;20029;-65
2023/12/10 03:21:39;;;;;;;26.77;18.50;;;;;;;-145.63;54.72;38764.16;5085049;28;20052;-65
2023/12/10 03:24:05;;;;;;;24.80;16.00;;;;;;;-145.63;54.97;38742.66;5082163;28;20088;-66
2023/12/10 03:26:30;;;;;;;25.63;16.08;;;;;;;-145.63;55.47;38762.22;5065050;28;20101;-65
2023/12/10 03:28:56;;;;;;;26.48;18.30;;;;;;;-145.63;55.18;38762.22;5083413;28;20033;-66
2023/12/10 03:31:22;;;;;;;25.67;15.30;;;;;;;-145.63;55.21;38770.03;5071152;28;20032;-65
2023/12/10 03:33:50;;;;;;;25.55;17.10;;;;;;;-145.63;55.62;38787.63;5073561;28;20028;-66
2023/12/10 03:36:16;;;;;;;25.58;15.32;;;;;;;-145.63;55.08;38762.22;5079560;28;20045;-65
2023/12/10 03:38:42;;;;;;;25.20;17.05;;;;;;;-145.63;55.76;38789.59;5064940;28;20047;-65
2023/12/10 03:41:07;;;;;;;25.40;15.85;;;;;;;-145.63;55.78;38805.22;5084995;28;20309;-65
2023/12/10 03:43:33;;;;;;;25.15;17.15;;;;;;;-145.63;55.19;38758.28;5069719;28;20078;-66
2023/12/10 03:45:59;;;;;;;25.20;17.23;;;;;;;-145.63;55.49;38807.19;5074714;28;20059;-66
2023/12/10 03:48:24;;;;;;;24.50;15.27;;;;;;;-145.63;55.95;38783.72;5084484;28;20304;-67
2023/12/10 03:50:51;;;;;;;25.73;16.08;;;;;;;-145.63;55.81;38783.72;5084295;28;20025;-66
2023/12/10 03:53:17;;;;;;;22.65;15.23;;;;;;;-145.63;55.72;38789.59;5084582;28;20027;-66
2023/12/10 03:55:43;;;;;;;25.52;16.95;;;;;;;-145.63;55.72;38807.19;5067949;28;20462;-69
2023/12/10 03:58:09;;;;;;;27.42;17.58;;;;;;;-145.63;56.57;38781.75;5087468;28;20073;-67
2023/12/10 04:00:35;;;;;;;28.55;15.48;;;;;;;-145.63;55.80;38768.06;5085561;28;20304;-66
2023/12/10 04:03:01;;;;;;;23.55;14.40;;;;;;;-145.63;56.00;38754.38;5082316;28;20021;-66
2023/12/10 04:05:27;;;;;;;26.60;16.77;;;;;;;-145.63;56.49;38770.03;5076314;28;20027;-67
2023/12/10 04:07:52;;;;;;;29.35;19.17;;;;;;;-145.63;56.55;38775.91;5083982;28;20029;-66
2023/12/10 04:10:18;;;;;;;28.08;18.70;;;;;;;-145.63;56.33;38773.94;5071315;28;20048;-65
2023/12/10 04:12:44;;;;;;;24.17;15.32;;;;;;;-145.63;56.50;38773.94;5080334;28;20189;-66
2023/12/10 04:15:10;;;;;;;27.85;15.85;;;;;;;-145.63;56.59;38777.84;5083004;28;20047;-66
2023/12/10 04:17:36;;;;;;;28.65;17.15;;;;;;;-145.63;55.70;38770.03;5083192;28;20122;-66
2023/12/10 04:20:03;;;;;;;28.63;19.05;;;;;;;-145.63;55.99;38797.41;5083596;28;20091;-66
2023/12/10 04:22:30;;;;;;;25.02;18.02;;;;;;;-145.63;56.07;38777.84;5083650;28;20016;-66
2023/12/10 04:24:56;;;;;;;27.15;16.33;;;;;;;-145.63;55.76;38773.94;5083401;28;20032;-65
2023/12/10 04:27:23;;;;;;;27.67;18.88;;;;;;;-145.63;56.32;38779.81;5082796;28;20309;-65
2023/12/10 04:29:50;;;;;;;27.90;18.00;;;;;;;-145.63;56.24;38797.41;5083379;28;20321;-65
2023/12/10 04:32:16;;;;;;;24.50;15.70;;;;;;;-145.63;55.90;38791.53;5083413;28;20028;-65
2023/12/10 04:34:42;;;;;;;27.50;17.70;;;;;;;-145.63;55.86;38770.03;5083088;28;20067;-64
2023/12/10 04:37:08;;;;;;;24.98;17.75;;;;;;;-145.63;55.95;38795.44;5083173;28;20300;-66
2023/12/10 04:39:34;;;;;;;26.67;16.15;;;;;;;-145.63;56.03;38789.59;5082947;28;20155;-65
2023/12/10 04:41:59;;;;;;;29.25;18.95;;;;;;;-145.63;55.92;38771.97;5082639;28;20028;-66
2023/12/10 04:44:25;;;;;;;24.33;16.90;;;;;;;-145.63;55.67;38779.81;5082822;28;20027;-65
2023/12/10 04:46:51;;;;;;;24.02;14.68;;;;;;;-145.63;56.18;38752.44;5082123;28;20036;-65
2023/12/10 04:49:17;;;;;;;26.73;19.00;;;;;;;-145.63;56.78;38779.81;5083426;28;20021;-64
2023/12/10 04:51:43;;;;;;;24.95;16.85;;;;;;;-145.63;55.84;38801.31;5082746;28;20074;-65
2023/12/10 04:54:09;;;;;;;26.83;16.35;;;;;;;-145.63;56.56;38777.84;5082735;28;20060;-63
2023/12/10 04:56:35;;;;;;;28.67;18.88;;;;;;;-145.63;56.20;38799.34;5082907;28;20024;-66
2023/12/10 04:59:00;;;;;;;27.60;16.95;;;;;;;-145.63;55.80;38811.09;5082923;28;20035;-67
2023/12/10 05:01:26;;;;;;;28.23;17.92;;;;;;;-145.63;56.03;38805.22;5082540;28;20216;-67
2023/12/10 05:03:52;;;;;;;26.30;18.10;;;;;;;-145.63;56.31;38789.59;5082466;28;20077;-67
2023/12/10 05:06:18;;;;;;;26.77;17.42;;;;;;;-145.63;56.61;38777.84;5082840;28;20055;-67
2023/12/10 05:08:44;;;;;;;26.95;17.08;;;;;;;-145.63;55.87;38789.59;5081802;28;20155;-67
2023/12/10 05:11:09;;;;;;;27.00;18.75;;;;;;;-145.63;55.59;38766.13;5082532;28;20043;-68
2023/12/10 05:13:35;;;;;;;25.83;18.05;;;;;;;-145.63;56.54;38793.50;5082205;28;20039;-68
2023/12/10 05:16:03;;;;;;;23.60;15.60;;;;;;;-145.63;55.59;38762.22;5082290;28;20020;-67
2023/12/10 05:18:29;;;;;;;26.13;18.02;;;;;;;-145.63;55.55;38687.91;5082447;28;20142;-67
2023/12/10 05:20:55;;;;;;;25.77;16.10;;;;;;;-145.63;55.92;38754.38;5082456;28;20082;-68
2023/12/10 05:23:21;;;;;;;27.45;17.25;;;;;;;-145.63;56.70;38766.13;5082422;28;20092;-68
2023/12/10 05:25:46;;;;;;;21.48;15.35;;;;;;;-145.63;56.29;38785.66;5068055;28;20043;-67
2023/12/10 05:28:12;;;;;;;26.88;16.33;;;;;;;-145.63;55.91;38787.63;5081724;28;20852;-67
2023/12/10 05:30:38;;;;;;;26.50;16.92;;;;;;;-145.63;56.39;38762.22;5082389;28;20028;-67
2023/12/10 05:33:04;;;;;;;26.23;16.67;;;;;;;-145.63;56.53;38770.03;5082420;28;20127;-67
2023/12/10 05:35:29;;;;;;;25.00;15.85;;;;;;;-145.63;57.19;38777.84;5082616;28;20040;-66
2023/12/10 05:37:55;;;;;;;27.17;17.52;;;;;;;-145.63;56.53;38797.41;5082308;28;20095;-64
2023/12/10 05:40:25;;;;;;;20.25;15.30;;;;;;;-145.63;56.53;38748.50;5082139;28;20038;-65
2023/12/10 05:42:52;;;;;;;25.73;17.95;;;;;;;-145.63;56.81;38760.25;5082104;28;20029;-64
2023/12/10 05:45:18;;;;;;;23.95;14.73;;;;;;;-145.63;56.63;38815.00;5078680;28;20027;-66
2023/12/10 05:47:43;;;;;;;23.90;13.75;;;;;;;-145.63;56.69;38758.28;5080216;28;20044;-64
2023/12/10 05:50:09;;;;;;;22.92;13.82;;;;;;;-145.63;56.72;38771.97;5079667;28;20538;-66
2023/12/10 05:52:35;;;;;;;26.40;15.65;;;;;;;-145.63;56.99;38785.66;5082301;28;20055;-66
2023/12/10 05:55:00;;;;;;;24.95;15.60;;;;;;;-145.63;56.99;38777.84;5075848;28;20324;-66
2023/12/10 05:57:29;;;;;;;26.05;15.52;;;;;;;-145.63;56.79;38771.97;5082940;28;20091;-65
2023/12/10 05:59:54;;;;;;;23.17;15.00;;;;;;;-145.63;56.99;38779.81;5085126;28;20028;-64
2023/12/10 06:02:21;;;;;;;21.52;14.07;;;;;;;-145.63;56.53;38781.75;5086192;28;20032;-65
2023/12/10 06:04:47;;;;;;;22.98;13.35;;;;;;;-145.63;56.80;38777.84;5084704;28;20071;-65
2023/12/10 06:07:12;;;;;;;25.33;13.73;;;;;;;-145.63;56.98;38750.47;5086191;28;20048;-64
2023/12/10 06:09:38;;;;;;;24.23;14.27;;;;;;;-145.63;56.84;38766.13;5085330;28;20356;-65
2023/12/10 06:12:04;;;;;;;26.73;14.75;;;;;;;-145.63;56.92;38768.06;5086051;28;20052;-65
2023/12/10 06:14:30;;;;;;;24.83;14.55;;;;;;;-145.63;56.02;38785.66;5086181;28;20035;-65
2023/12/10 06:16:56;;;;;;;21.15;14.15;;;;;;;-145.63;56.34;38738.75;5069586;28;20029;-66
2023/12/10 06:19:21;;;;;;;24.30;15.25;;;;;;;-145.63;56.59;38754.38;5078237;28;20087;-66
2023/12/10 06:21:47;;;;;;;23.10;16.05;;;;;;;-145.63;55.98;38713.31;5085970;28;20043;-68
2023/12/10 06:24:13;;;;;;;26.42;16.17;;;;;;;-145.63;55.82;38783.72;5085851;28;20021;-68
2023/12/10 06:26:38;;;;;;;24.75;15.15;;;;;;;-145.63;56.28;38750.47;5085929;28;20058;-67
2023/12/10 06:29:04;;;;;;;24.08;13.60;;;;;;;-145.63;56.11;38750.47;5068241;28;20040;-68
2023/12/10 06:31:30;;;;;;;21.70;15.02;;;;;;;-145.63;55.87;38725.06;5078770;28;20028;-66
2023/12/10 06:33:55;;;;;;;22.55;14.15;;;;;;;-145.63;56.07;38742.66;5077716;28;20028;-67
2023/12/10 06:36:21;;;;;;;25.20;16.20;;;;;;;-145.63;56.01;38738.75;5069086;28;20044;-67
2023/12/10 06:38:47;;;;;;;25.08;15.70;;;;;;;-145.63;55.96;38711.38;5085707;28;20260;-66
2023/12/10 06:41:13;;;;;;;21.70;14.38;;;;;;;-145.63;56.13;38732.88;5085298;28;20024;-66
2023/12/10 06:43:39;;;;;;;25.05;13.77;;;;;;;-145.63;55.83;38736.78;5085476;28;20062;-64
2023/12/10 06:46:06;;;;;;;23.35;15.25;;;;;;;-145.63;55.75;38754.38;5085369;28;20218;-67
2023/12/10 06:48:33;;;;;;;29.30;17.88;;;;;;;-145.63;55.63;38756.34;5085139;28;20033;-65
2023/12/10 06:51:01;;;;;;;23.05;14.55;;;;;;;-145.63;55.64;38709.41;5082778;28;20044;-66
2023/12/10 06:53:27;;;;;;;22.55;14.85;;;;;;;-145.63;55.16;38744.59;5085055;28;20024;-66
2023/12/10 06:55:53;;;;;;;22.52;13.77;;;;;;;-145.63;55.15;38730.91;5085069;28;20100;-65
2023/12/10 06:58:19;;;;;;;19.35;14.15;;;;;;;-145.63;55.05;38723.09;5082560;28;20020;-65
2023/12/10 07:00:45;;;;;;;25.55;15.60;;;;;;;-145.63;55.63;38687.91;5084985;28;20392;-66
2023/12/10 07:03:10;;;;;;;22.90;15.07;;;;;;;-145.63;55.52;38732.88;5084913;28;20026;-65
2023/12/10 07:05:36;;;;;;;21.73;15.60;;;;;;;-145.63;55.58;38766.13;5082642;28;20016;-66
2023/12/10 07:08:02;;;;;;;21.05;15.07;;;;;;;-145.63;54.99;38717.22;5083383;28;20310;-66
2023/12/10 07:10:28;;;;;;;21.02;14.10;;;;;;;-145.63;55.53;38711.38;5084580;28;20016;-65
2023/12/10 07:12:54;;;;;;;25.75;15.10;;;;;;;-145.63;55.36;38728.97;5084625;28;20339;-65
2023/12/10 07:15:20;;;;;;;24.75;15.05;;;;;;;-145.63;55.20;38713.31;5084784;28;20028;-66
2023/12/10 07:17:46;;;;;;;20.85;13.95;;;;;;;-145.63;55.03;38750.47;5084269;28;20043;-65
2023/12/10 07:20:11;;;;;;;22.50;14.88;;;;;;;-145.63;55.28;38701.59;5084495;28;20043;-64
2023/12/10 07:22:37;;;;;;;21.02;14.45;;;;;;;-145.63;55.72;38609.69;5083807;28;20074;-66
2023/12/10 07:25:07;;;;;;;21.08;13.80;;;;;;;-145.63;55.35;38725.06;5082400;28;20056;-65
2023/12/10 07:27:33;;;;;;;22.27;13.88;;;;;;;-145.63;55.77;38713.31;5068977;28;20209;-66
2023/12/10 07:29:59;;;;;;;24.02;14.00;;;;;;;-145.63;55.42;38723.09;5083765;28;20071;-66
2023/12/10 07:32:25;;;;;;;22.35;15.20;;;;;;;-145.63;55.56;38746.56;5064798;28;20028;-65
2023/12/10 07:34:51;;;;;;;21.75;14.50;;;;;;;-145.63;55.51;38725.06;5080183;28;20059;-65
2023/12/10 07:37:17;;;;;;;19.73;13.90;;;;;;;-145.63;55.21;38828.69;5073956;28;20064;-65
2023/12/10 07:39:42;;;;;;;23.42;15.35;;;;;;;-145.63;54.59;38744.59;5070283;28;20335;-66
2023/12/10 07:42:08;;;;;;;22.17;14.95;;;;;;;-145.63;54.95;38779.81;5083322;28;20042;-67
2023/12/10 07:44:35;;;;;;;24.98;14.25;;;;;;;-145.63;55.41;38723.09;5064301;28;20313;-65
2023/12/10 07:47:02;;;;;;;25.52;14.93;;;;;;;-145.63;55.71;38738.75;5080913;28;20087;-66
2023/12/10 07:49:27;;;;;;;23.70;15.18;;;;;;;-145.63;54.99;38740.69;5084175;28;20058;-64
2023/12/10 07:51:53;;;;;;;21.48;14.13;;;;;;;-145.63;55.09;38719.19;5077115;28;20462;-65
2023/12/10 07:54:19;;;;;;;23.50;14.88;;;;;;;-145.63;55.13;38703.53;5049069;28;20036;-64
2023/12/10 07:56:45;;;;;;;21.67;15.45;;;;;;;-145.63;54.99;38742.66;5083816;28;20062;-64
2023/12/10 07:59:12;;;;;;;23.52;15.02;;;;;;;-145.63;54.66;38756.34;5084716;28;20021;-64
2023/12/10 08:01:38;;;;;;;24.73;15.35;;;;;;;-145.63;54.73;38732.88;5079531;28;20301;-65
2023/12/10 08:04:04;;;;;;;24.85;14.43;;;;;;;-145.63;55.33;38711.38;5077507;28;20056;-64
2023/12/10 08:06:30;;;;;;;23.85;14.15;;;;;;;-145.63;54.94;38734.81;5075937;28;20029;-62
2023/12/10 08:08:56;;;;;;;22.88;15.05;;;;;;;-145.63;55.67;38748.50;5064401;28;20092;-63
2023/12/10 08:11:21;;;;;;;22.25;14.25;;;;;;;-145.63;54.48;38725.06;5068556;28;20064;-66
2023/12/10 08:13:47;;;;;;;22.02;14.73;;;;;;;-145.63;54.79;38721.13;5079403;28;20398;-67
2023/12/10 08:16:14;;;;;;;21.38;13.45;;;;;;;-145.63;54.77;38736.78;5075586;28;20075;-67
2023/12/10 08:18:40;;;;;;;24.30;14.52;;;;;;;-145.63;54.80;38711.38;5067712;28;20027;-68
2023/12/10 08:21:07;;;;;;;23.40;14.95;;;;;;;-145.63;54.42;38736.78;5082577;28;20227;-67
2023/12/10 08:23:33;;;;;;;20.65;13.85;;;;;;;-145.63;54.02;38715.28;5082938;28;20035;-67
2023/12/10 08:26:00;;;;;;;21.52;14.80;;;;;;;-145.63;54.11;38740.69;5074747;28;20024;-67
2023/12/10 08:28:25;;;;;;;20.20;14.50;;;;;;;-145.63;54.81;38744.59;5083349;28;20151;-64
2023/12/10 08:30:51;;;;;;;21.52;14.98;;;;;;;-145.63;54.15;38732.88;5076556;28;20021;-65
2023/12/10 08:33:17;;;;;;;22.17;13.70;;;;;;;-145.63;54.16;38740.69;5072088;28;20087;-65
2023/12/10 08:35:43;;;;;;;23.10;16.48;;;;;;;-145.63;54.30;38734.81;5075986;28;20048;-65
2023/12/10 08:38:08;;;;;;;23.42;15.48;;;;;;;-145.63;54.22;38760.25;5083071;28;20087;-65
2023/12/10 08:40:34;;;;;;;24.52;14.95;;;;;;;-145.63;53.88;38771.97;5070752;28;20096;-66
2023/12/10 08:43:01;;;;;;;22.00;14.35;;;;;;;-145.63;53.32;38750.47;5075548;28;20024;-65
2023/12/10 08:45:27;;;;;;;24.48;14.57;;;;;;;-145.63;53.84;38758.28;5082889;28;20293;-65
2023/12/10 08:47:52;;;;;;;26.20;15.82;;;;;;;-145.63;54.16;38738.75;5082680;28;20103;-64
2023/12/10 08:50:18;;;;;;;22.08;14.95;;;;;;;-145.63;53.71;38754.38;5082960;28;20024;-63
2023/12/10 08:52:44;;;;;;;21.20;14.63;;;;;;;-145.63;54.60;38760.25;5082975;28;20024;-63
2023/12/10 08:55:09;;;;;;;20.85;14.35;;;;;;;-145.63;53.99;38621.41;5074093;28;20021;-64
2023/12/10 08:57:35;;;;;;;26.63;15.38;;;;;;;-145.63;53.92;38766.13;5074121;28;20028;-63
2023/12/10 09:00:01;;;;;;;20.85;14.40;;;;;;;-145.63;54.92;38719.19;5103320;28;20020;-64
2023/12/10 09:02:27;;;;;;;23.20;15.07;;;;;;;-145.63;53.82;38705.50;5083597;28;20044;-64
2023/12/10 09:04:53;;;;;;;23.08;15.68;;;;;;;-145.63;54.53;38770.03;5068040;28;20052;-67
2023/12/10 09:07:19;;;;;;;20.75;15.25;;;;;;;-145.63;54.71;38783.72;5071977;28;20259;-64
2023/12/10 09:09:45;;;;;;;22.27;15.48;;;;;;;-145.63;53.80;38738.75;5073027;28;20052;-62
2023/12/10 09:12:10;;;;;;;23.00;14.70;;;;;;;-145.63;54.92;38781.75;5074415;28;20032;-63
2023/12/10 09:14:36;;;;;;;23.30;16.33;;;;;;;-145.63;55.16;38760.25;5077249;28;20029;-63
2023/12/10 09:17:02;;;;;;;23.67;15.40;;;;;;;-145.63;53.85;38770.03;5069688;28;20067;-63
2023/12/10 09:19:29;;;;;;;22.02;14.65;;;;;;;-145.63;53.94;38748.50;5073555;28;20190;-61
2023/12/10 09:21:55;;;;;;;23.17;15.48;;;;;;;-145.63;54.92;38740.69;5075720;28;20025;-65
2023/12/10 09:24:22;;;;;;;20.13;13.95;;;;;;;-145.63;55.22;38748.50;5064639;28;20028;-66
2023/12/10 09:26:51;;;;;;;23.77;16.48;;;;;;;-145.63;55.50;38746.56;5069937;28;20029;-66
2023/12/10 09:29:17;;;;;;;23.25;15.45;;;;;;;-145.63;54.22;38750.47;5080005;28;20069;-65
2023/12/10 09:31:43;;;;;;;22.45;15.20;;;;;;;-145.63;53.65;38758.28;5068843;28;20032;-65
2023/12/10 09:34:09;;;;;;;29.15;16.17;;;;;;;-145.63;53.36;38781.75;5069357;28;20016;-64
2023/12/10 09:36:35;;;;;;;20.92;14.15;;;;;;;-145.63;54.02;38768.06;5078462;28;20052;-64
2023/12/10 09:39:01;;;;;;;23.60;16.45;;;;;;;-145.63;53.53;38758.28;5062388;28;20091;-64
2023/12/10 09:41:27;;;;;;;22.13;15.32;;;;;;;-145.63;54.17;38783.72;5081830;28;20100;-65
2023/12/10 09:43:53;;;;;;;21.92;15.70;;;;;;;-145.63;54.69;38756.34;5067713;28;20033;-64
2023/12/10 09:46:21;;;;;;;24.67;15.75;;;;;;;-145.63;54.53;38768.06;5082298;28;20089;-64
2023/12/10 09:48:49;;;;;;;23.52;15.18;;;;;;;-145.63;54.30;38760.25;5090933;28;20028;-65
2023/12/10 09:51:15;;;;;;;24.48;16.25;;;;;;;-145.63;53.73;38736.78;5092464;28;20229;-65
2023/12/10 09:53:42;;;;;;;22.98;15.55;;;;;;;-145.63;53.50;38764.16;5092540;28;20317;-64
2023/12/10 09:56:08;;;;;;;24.15;15.73;;;;;;;-145.63;53.87;38777.84;5091184;28;20205;-65
2023/12/10 09:58:34;;;;;;;20.35;15.27;;;;;;;-145.63;54.09;38789.59;5090935;28;20129;-65
2023/12/10 10:01:04;;;;;;;20.25;14.15;;;;;;;-145.63;53.92;38807.19;5093374;28;20253;-65
2023/12/10 10:03:33;;;;;;;23.70;15.02;;;;;;;-145.63;54.11;38768.06;5084645;28;20033;-65
2023/12/10 10:05:59;;;;;;;25.23;16.10;;;;;;;-145.63;53.70;38791.53;5082078;28;20033;-65
2023/12/10 10:08:26;;;;;;;22.08;15.68;;;;;;;-145.63;54.39;38779.81;5063061;28;20332;-66
2023/12/10 10:10:52;;;;;;;20.35;13.20;;;;;;;-145.63;54.92;38766.13;5075743;28;20087;-65
2023/12/10 10:13:18;;;;;;;21.48;14.77;;;;;;;-145.63;54.15;38805.22;5078155;28;20235;-65
2023/12/10 10:15:45;;;;;;;20.45;14.63;;;;;;;-145.63;54.67;38795.44;5078129;28;20065;-65
2023/12/10 10:18:14;;;;;;;24.90;16.58;;;;;;;-145.63;54.73;38818.91;5069187;28;20044;-65
2023/12/10 10:20:43;;;;;;;23.40;15.10;;;;;;;-145.63;55.15;38779.81;5069644;28;20062;-64
2023/12/10 10:23:09;;;;;;;27.02;16.00;;;;;;;-145.63;54.28;38816.97;5065428;28;20028;-64
2023/12/10 10:25:35;;;;;;;23.10;16.17;;;;;;;-145.63;53.57;38801.31;5073370;28;20171;-65
2023/12/10 10:28:01;;;;;;;27.35;16.48;;;;;;;-145.63;54.09;38056.34;5080712;28;20027;-64
2023/12/10 10:30:27;;;;;;;25.08;15.52;;;;;;;-145.63;53.78;38680.06;5082012;28;20036;-65
2023/12/10 10:32:55;;;;;;;22.40;13.82;;;;;;;-145.63;54.68;38766.13;5081358;28;20020;-66
2023/12/10 10:35:21;;;;;;;21.50;14.70;;;;;;;-145.63;54.78;38789.59;5081456;28;20546;-64
2023/12/10 10:37:47;;;;;;;20.92;14.20;;;;;;;-145.63;54.95;38799.34;5081061;28;20032;-65
2023/12/10 10:40:13;;;;;;;23.42;15.13;;;;;;;-145.63;54.11;38756.34;5081537;28;20038;-65
2023/12/10 10:42:39;;;;;;;28.30;17.83;;;;;;;-145.63;55.39;38805.22;5085274;28;20017;-66
2023/12/10 10:45:05;;;;;;;21.08;14.10;;;;;;;-145.63;54.24;38799.34;5085677;28;20170;-66
2023/12/10 10:47:34;;;;;;;21.73;13.57;;;;;;;-145.63;55.87;38789.59;5066174;28;20327;-65
2023/12/10 10:50:03;;;;;;;23.15;15.13;;;;;;;-145.63;54.72;38807.19;5080003;28;20020;-67
2023/12/10 10:52:33;;;;;;;21.20;15.25;;;;;;;-145.63;55.09;38787.63;5085483;28;20024;-65
2023/12/10 10:55:00;;;;;;;22.40;14.85;;;;;;;-145.63;54.47;38836.50;5078872;28;20017;-65
2023/12/10 10:57:30;;;;;;;22.75;14.95;;;;;;;-145.63;54.55;38793.50;5068765;28;20025;-67